createdAt,value
2019-03-02T00:00:30.267Z,4.90
2019-03-02T00:02:59.805Z,4.93
2019-03-02T00:05:28.886Z,4.83
2019-03-02T00:07:57.317Z,4.73
2019-03-02T00:10:25.772Z,4.73
2019-03-02T00:12:54.210Z,5.00
2019-03-02T00:15:22.657Z,5.03
2019-03-02T00:17:54.122Z,4.73
2019-03-02T00:20:21.295Z,4.67
2019-03-02T00:22:49.722Z,4.50
2019-03-02T00:25:18.146Z,4.63
2019-03-02T00:27:46.612Z,4.70
2019-03-02T00:30:17.752Z,4.90
2019-03-02T00:32:45.978Z,4.90
2019-03-02T00:35:15.391Z,5.43
2019-03-02T00:37:43.856Z,4.20
2019-03-02T00:40:12.362Z,4.57
2019-03-02T00:42:41.076Z,4.23
2019-03-02T00:45:15.449Z,4.83
2019-03-02T00:47:44.053Z,5.13
2019-03-02T00:50:12.825Z,4.87
2019-03-02T00:52:41.343Z,5.13
2019-03-02T00:55:10.299Z,5.03
2019-03-02T00:57:38.821Z,5.10
2019-03-02T01:00:11.675Z,5.57
2019-03-02T01:02:40.571Z,4.77
2019-03-02T01:05:09.180Z,5.13
2019-03-02T01:07:37.624Z,4.53
2019-03-02T01:10:11.922Z,4.73
2019-03-02T01:12:43.448Z,4.40
2019-03-02T01:15:13.023Z,4.80
2019-03-02T01:17:41.610Z,5.37
2019-03-02T01:20:12.459Z,5.17
2019-03-02T01:22:40.901Z,4.70
2019-03-02T01:25:14.650Z,4.80
2019-03-02T01:27:43.196Z,4.57
2019-03-02T01:30:14.203Z,4.97
2019-03-02T01:32:42.745Z,4.90
2019-03-02T01:35:11.191Z,4.60
2019-03-02T01:37:39.963Z,4.93
2019-03-02T01:40:12.345Z,4.40
2019-03-02T01:42:40.785Z,5.00
2019-03-02T01:45:11.778Z,4.70
2019-03-02T01:47:40.204Z,4.80
2019-03-02T01:50:11.961Z,4.83
2019-03-02T01:52:41.295Z,4.73
2019-03-02T01:55:10.888Z,5.17
2019-03-02T01:57:39.341Z,4.37
2019-03-02T02:00:16.237Z,4.70
2019-03-02T02:02:44.703Z,4.90
2019-03-02T02:05:13.214Z,5.17
2019-03-02T02:07:41.644Z,4.63
2019-03-02T02:10:14.565Z,4.40
2019-03-02T02:12:43.000Z,4.50
2019-03-02T02:15:17.000Z,4.93
2019-03-02T02:17:45.438Z,4.27
2019-03-02T02:20:15.473Z,4.50
2019-03-02T02:22:45.196Z,4.77
2019-03-02T02:25:19.381Z,4.80
2019-03-02T02:27:47.813Z,4.50
2019-03-02T02:30:26.864Z,4.50
2019-03-02T02:33:03.058Z,4.27
2019-03-02T02:35:26.803Z,4.83
2019-03-02T02:37:55.233Z,4.60
2019-03-02T02:40:23.684Z,4.67
2019-03-02T02:42:52.123Z,4.30
2019-03-02T02:45:22.819Z,4.60
2019-03-02T02:47:53.906Z,4.70
2019-03-02T02:50:29.444Z,4.70
2019-03-02T02:52:52.053Z,5.13
2019-03-02T02:55:20.589Z,4.77
2019-03-02T02:57:49.124Z,4.67
2019-03-02T03:00:22.287Z,5.20
2019-03-02T03:02:50.810Z,4.97
2019-03-02T03:05:19.864Z,4.93
2019-03-02T03:07:53.483Z,4.77
2019-03-02T03:10:29.795Z,4.97
2019-03-02T03:13:01.857Z,4.33
2019-03-02T03:15:42.617Z,4.70
2019-03-02T03:18:14.452Z,5.50
2019-03-02T03:20:47.641Z,4.77
2019-03-02T03:23:11.399Z,4.73
2019-03-02T03:25:39.872Z,4.93
2019-03-02T03:28:08.313Z,5.00
2019-03-02T03:30:39.705Z,5.43
2019-03-02T03:33:06.956Z,5.03
2019-03-02T03:35:35.446Z,4.93
2019-03-02T03:38:03.878Z,5.00
2019-03-02T03:40:32.360Z,5.63
2019-03-02T03:43:03.173Z,5.80
2019-03-02T03:45:30.994Z,5.43
2019-03-02T03:47:59.438Z,5.00
2019-03-02T03:50:27.904Z,5.20
2019-03-02T03:52:56.363Z,5.10
2019-03-02T03:55:27.330Z,5.93
2019-03-02T03:57:59.828Z,5.20
2019-03-02T04:00:25.304Z,5.00
2019-03-02T04:02:53.750Z,5.53
2019-03-02T04:05:22.213Z,5.50
2019-03-02T04:07:51.563Z,5.17
2019-03-02T04:10:25.572Z,5.70
2019-03-02T04:12:50.460Z,5.63
2019-03-02T04:15:18.982Z,5.70
2019-03-02T04:17:47.500Z,5.73
2019-03-02T04:20:28.011Z,6.03
2019-03-02T04:22:57.798Z,5.47
2019-03-02T04:25:26.334Z,6.87
2019-03-02T04:27:56.146Z,6.60
2019-03-02T04:30:30.446Z,7.27
2019-03-02T04:32:54.949Z,7.17
2019-03-02T04:35:23.481Z,7.50
2019-03-02T04:37:51.970Z,7.70
2019-03-02T04:40:23.321Z,7.60
2019-03-02T04:42:51.571Z,7.87
2019-03-02T04:45:20.068Z,7.10
2019-03-02T04:47:48.515Z,7.77
2019-03-02T04:50:16.981Z,8.00
2019-03-02T04:52:46.596Z,8.40
2019-03-02T04:55:15.618Z,8.60
2019-03-02T04:57:44.077Z,8.43
2019-03-02T05:00:15.097Z,7.87
2019-03-02T05:02:43.525Z,7.87
2019-03-02T05:05:12.047Z,8.13
2019-03-02T05:07:40.489Z,8.03
2019-03-02T05:10:10.892Z,8.37
2019-03-02T05:12:39.324Z,8.00
2019-03-02T05:15:12.112Z,8.30
2019-03-02T05:17:42.899Z,7.97
2019-03-02T05:20:11.565Z,8.33
2019-03-02T05:22:40.088Z,8.20
2019-03-02T05:25:10.574Z,8.00
2019-03-02T05:27:39.036Z,8.60
2019-03-02T05:30:13.448Z,8.20
2019-03-02T05:32:42.068Z,8.07
2019-03-02T05:35:11.729Z,8.60
2019-03-02T05:37:41.001Z,9.20
2019-03-02T05:40:10.582Z,8.20
2019-03-02T05:42:39.029Z,8.97
2019-03-02T05:45:09.918Z,8.97
2019-03-02T05:47:38.378Z,9.00
2019-03-02T05:50:11.729Z,8.23
2019-03-02T05:52:40.184Z,8.70
2019-03-02T05:55:09.368Z,7.17
2019-03-02T05:57:40.495Z,8.13
2019-03-02T06:00:11.845Z,7.90
2019-03-02T06:02:40.318Z,7.87
2019-03-02T06:05:08.832Z,7.87
2019-03-02T06:07:37.289Z,7.83
2019-03-02T06:10:10.824Z,7.60
2019-03-02T06:12:39.298Z,8.37
2019-03-02T06:15:10.569Z,7.90
2019-03-02T06:17:39.038Z,7.53
2019-03-02T06:20:09.189Z,8.40
2019-03-02T06:22:37.633Z,7.97
2019-03-02T06:25:07.823Z,8.53
2019-03-02T06:27:36.270Z,8.17
2019-03-02T06:30:08.464Z,8.37
2019-03-02T06:32:37.768Z,7.93
2019-03-02T06:35:08.442Z,8.50
2019-03-02T06:37:36.921Z,8.37
2019-03-02T06:40:07.612Z,8.53
2019-03-02T06:42:36.076Z,7.77
2019-03-02T06:45:09.012Z,7.77
2019-03-02T06:47:37.829Z,8.27
2019-03-02T06:50:09.369Z,7.80
2019-03-02T06:52:37.917Z,7.50
2019-03-02T06:55:08.182Z,9.00
2019-03-02T06:57:36.659Z,7.57
2019-03-02T07:00:13.974Z,8.10
2019-03-02T07:02:42.595Z,8.30
2019-03-02T07:05:11.097Z,8.30
2019-03-02T07:07:39.668Z,8.57
2019-03-02T07:10:13.122Z,8.83
2019-03-02T07:12:41.811Z,8.50
2019-03-02T07:15:13.384Z,8.03
2019-03-02T07:18:01.907Z,7.63
2019-03-02T07:20:31.472Z,8.03
2019-03-02T07:22:59.939Z,7.40
2019-03-02T07:25:28.389Z,7.57
2019-03-02T07:27:56.899Z,8.30
2019-03-02T07:30:25.368Z,8.37
2019-03-02T07:32:54.850Z,8.60
2019-03-02T07:35:23.461Z,8.60
2019-03-02T07:37:51.920Z,8.73
2019-03-02T07:40:20.381Z,8.60
2019-03-02T07:42:48.901Z,8.13
2019-03-02T07:45:18.811Z,8.87
2019-03-02T07:47:47.329Z,10.67
2019-03-02T07:50:16.413Z,9.87
2019-03-02T07:52:44.955Z,9.93
2019-03-02T07:55:14.657Z,9.83
2019-03-02T07:57:44.716Z,10.17
2019-03-02T08:00:21.402Z,10.60
2019-03-02T08:02:49.871Z,9.20
2019-03-02T08:05:18.320Z,9.87
2019-03-02T08:07:46.804Z,9.57
2019-03-02T08:10:15.317Z,9.90
2019-03-02T08:12:43.854Z,10.07
2019-03-02T08:15:29.931Z,10.37
2019-03-02T08:17:58.409Z,9.07
2019-03-02T08:20:26.963Z,10.07
2019-03-02T08:22:55.439Z,10.17
2019-03-02T08:25:23.886Z,10.93
2019-03-02T08:27:52.363Z,10.30
2019-03-02T08:30:24.542Z,10.37
2019-03-02T08:32:54.137Z,10.17
2019-03-02T08:35:23.179Z,9.00
2019-03-02T08:37:51.634Z,9.13
2019-03-02T08:40:23.197Z,10.43
2019-03-02T08:42:50.412Z,9.90
2019-03-02T08:45:19.591Z,9.60
2019-03-02T08:47:48.208Z,9.17
2019-03-02T08:50:18.660Z,9.50
2019-03-02T08:52:47.339Z,9.47
2019-03-02T08:55:20.331Z,9.33
2019-03-02T08:57:48.796Z,9.00
2019-03-02T09:00:22.108Z,8.80
2019-03-02T09:02:50.650Z,9.73
2019-03-02T09:05:19.330Z,9.50
2019-03-02T09:07:48.018Z,9.07
2019-03-02T09:10:17.330Z,9.10
2019-03-02T09:12:45.839Z,8.27
2019-03-02T09:15:17.363Z,7.67
2019-03-02T09:17:45.805Z,8.13
2019-03-02T09:20:14.630Z,8.47
2019-03-02T09:22:43.078Z,8.43
2019-03-02T09:25:23.965Z,8.43
2019-03-02T09:27:51.675Z,8.87
2019-03-02T09:30:21.153Z,8.20
2019-03-02T09:32:52.368Z,8.03
2019-03-02T09:35:21.041Z,8.03
2019-03-02T09:37:49.481Z,7.77
2019-03-02T09:40:24.232Z,7.43
2019-03-02T09:42:52.209Z,7.90
2019-03-02T09:45:21.315Z,7.50
2019-03-02T09:47:51.897Z,7.67
2019-03-02T09:50:23.780Z,7.67
2019-03-02T09:52:52.235Z,7.80
2019-03-02T09:55:20.973Z,7.47
2019-03-02T09:57:49.651Z,7.00
2019-03-02T10:00:31.341Z,7.27
2019-03-02T10:02:59.797Z,7.53
2019-03-02T10:05:28.309Z,7.63
2019-03-02T10:07:56.738Z,7.93
2019-03-02T10:10:28.821Z,7.17
2019-03-02T10:12:55.403Z,7.97
2019-03-02T10:15:31.780Z,7.53
2019-03-02T10:18:00.480Z,8.03
2019-03-02T10:20:28.938Z,7.57
2019-03-02T10:22:57.396Z,8.00
2019-03-02T10:25:31.076Z,8.10
2019-03-02T10:27:57.367Z,8.03
2019-03-02T10:30:27.421Z,7.23
2019-03-02T10:32:57.325Z,7.13
2019-03-02T10:35:25.941Z,7.80
2019-03-02T10:37:54.363Z,7.37
2019-03-02T10:40:23.421Z,7.40
2019-03-02T10:42:52.052Z,9.27
2019-03-02T10:45:21.703Z,8.87
2019-03-02T10:47:50.162Z,8.00
2019-03-02T10:50:23.322Z,7.23
2019-03-02T10:52:51.001Z,7.53
2019-03-02T10:55:20.890Z,7.80
2019-03-02T10:57:50.189Z,7.80
2019-03-02T11:00:30.860Z,7.50
2019-03-02T11:03:08.030Z,7.83
2019-03-02T11:05:46.655Z,7.60
2019-03-02T11:08:28.561Z,7.53
2019-03-02T11:11:14.879Z,7.10
2019-03-02T11:14:01.342Z,7.67
2019-03-02T11:16:31.414Z,8.17
2019-03-02T11:19:07.863Z,8.07
2019-03-02T11:21:41.394Z,8.10
2019-03-02T11:24:17.156Z,7.53
2019-03-02T11:27:05.389Z,6.77
2019-03-02T11:29:50.585Z,6.70
2019-03-02T11:32:29.136Z,7.30
2019-03-02T11:35:14.310Z,6.40
2019-03-02T11:37:49.277Z,6.30
2019-03-02T11:40:29.599Z,6.30
2019-03-02T11:43:01.960Z,6.33
2019-03-02T11:45:49.923Z,5.80
2019-03-02T11:48:20.058Z,5.33
2019-03-02T11:51:07.754Z,5.40
2019-03-02T11:53:40.287Z,5.47
2019-03-02T11:56:10.402Z,5.20
2019-03-02T11:58:46.336Z,5.03
2019-03-02T12:01:16.453Z,4.97
2019-03-02T12:04:02.633Z,4.37
2019-03-02T12:06:37.922Z,5.13
2019-03-02T12:09:24.599Z,5.10
2019-03-02T12:12:06.799Z,4.63
2019-03-02T12:14:39.275Z,4.87
2019-03-02T12:17:21.222Z,7.10
2019-03-02T12:20:08.563Z,5.00
2019-03-02T12:22:40.938Z,5.70
2019-03-02T12:25:31.146Z,5.43
2019-03-02T12:28:00.398Z,5.20
2019-03-02T12:30:45.303Z,5.27
2019-03-02T12:33:16.993Z,5.90
2019-03-02T12:35:52.939Z,4.73
2019-03-02T12:38:23.044Z,6.07
2019-03-02T12:40:56.011Z,4.83
2019-03-02T12:43:35.304Z,5.57
2019-03-02T12:46:09.112Z,5.03
2019-03-02T12:48:49.062Z,4.97
2019-03-02T12:51:30.947Z,5.30
2019-03-02T12:54:04.865Z,5.20
2019-03-02T12:56:42.095Z,5.73
2019-03-02T12:59:15.137Z,5.60
2019-03-02T13:02:00.179Z,6.30
2019-03-02T13:04:45.348Z,5.60
2019-03-02T13:07:32.221Z,5.30
2019-03-02T13:10:20.542Z,6.23
2019-03-02T13:12:59.465Z,5.43
2019-03-02T13:15:42.159Z,5.83
2019-03-02T13:18:15.866Z,5.60
2019-03-02T13:20:45.942Z,5.90
2019-03-02T13:23:18.782Z,4.77
2019-03-02T13:25:48.865Z,5.17
2019-03-02T13:28:37.086Z,5.93
2019-03-02T13:31:15.626Z,5.63
2019-03-02T13:33:51.673Z,5.77
2019-03-02T13:36:21.749Z,5.37
2019-03-02T13:39:00.625Z,6.10
2019-03-02T13:41:42.927Z,5.70
2019-03-02T13:44:27.386Z,5.13
2019-03-02T13:47:07.121Z,5.83
2019-03-02T13:49:56.457Z,5.33
2019-03-02T13:52:29.301Z,5.47
2019-03-02T13:55:02.155Z,6.53
2019-03-02T13:57:44.022Z,5.83
2019-03-02T14:00:14.689Z,6.27
2019-03-02T14:03:02.307Z,6.00
2019-03-02T14:05:32.389Z,5.07
2019-03-02T14:08:04.175Z,4.57
2019-03-02T14:10:52.093Z,5.50
2019-03-02T14:13:22.193Z,5.53
2019-03-02T14:16:10.475Z,5.90
2019-03-02T14:18:43.236Z,5.83
2019-03-02T14:21:34.471Z,5.97
2019-03-02T14:24:03.889Z,5.73
2019-03-02T14:26:36.797Z,5.53
2019-03-02T14:29:08.093Z,5.43
2019-03-02T14:31:38.935Z,5.03
2019-03-02T14:34:09.064Z,5.27
2019-03-02T14:36:45.063Z,5.83
2019-03-02T14:39:18.274Z,5.23
2019-03-02T14:41:48.330Z,5.13
2019-03-02T14:44:24.533Z,4.83
2019-03-02T14:47:01.289Z,9.30
2019-03-02T14:49:31.501Z,6.37
2019-03-02T14:52:01.661Z,5.67
2019-03-02T14:54:34.411Z,6.07
2019-03-02T14:57:07.398Z,6.00
2019-03-02T14:59:53.716Z,5.50
2019-03-02T15:02:41.644Z,4.97
2019-03-02T15:05:11.741Z,5.60
2019-03-02T15:07:59.027Z,5.10
2019-03-02T15:10:32.521Z,5.20
2019-03-02T15:13:11.305Z,5.83
2019-03-02T15:15:58.727Z,6.53
2019-03-02T15:18:45.329Z,8.17
2019-03-02T15:21:31.117Z,5.60
2019-03-02T15:24:04.091Z,5.50
2019-03-02T15:26:48.992Z,5.33
2019-03-02T15:29:21.972Z,5.90
2019-03-02T15:31:52.066Z,5.27
2019-03-02T15:34:42.307Z,4.80
2019-03-02T15:37:11.773Z,5.20
2019-03-02T15:39:41.867Z,5.80
2019-03-02T15:42:21.321Z,5.07
2019-03-02T15:44:52.218Z,5.07
2019-03-02T15:47:22.371Z,6.50
2019-03-02T15:50:01.355Z,5.50
2019-03-02T15:52:31.514Z,5.13
2019-03-02T15:55:19.806Z,4.87
2019-03-02T15:57:53.692Z,5.50
2019-03-02T16:00:32.454Z,4.77
2019-03-02T16:03:20.450Z,5.60
2019-03-02T16:06:02.116Z,4.83
2019-03-02T16:08:48.865Z,5.77
2019-03-02T16:11:35.644Z,5.10
2019-03-02T16:14:05.796Z,5.30
2019-03-02T16:16:35.949Z,4.93
2019-03-02T16:19:15.143Z,4.50
2019-03-02T16:21:53.194Z,5.20
2019-03-02T16:24:23.834Z,5.57
2019-03-02T16:26:57.506Z,4.93
2019-03-02T16:29:30.521Z,5.10
2019-03-02T16:32:00.604Z,5.37
2019-03-02T16:34:30.819Z,5.17
2019-03-02T16:37:18.353Z,5.57
2019-03-02T16:39:48.541Z,5.80
2019-03-02T16:42:18.641Z,5.07
2019-03-02T16:45:00.807Z,4.80
2019-03-02T16:47:44.887Z,4.80
2019-03-02T16:50:18.256Z,4.70
2019-03-02T16:53:03.163Z,5.63
2019-03-02T16:55:36.437Z,5.70
2019-03-02T16:58:17.536Z,5.50
2019-03-02T17:01:01.973Z,5.87
2019-03-02T17:03:32.195Z,5.47
2019-03-02T17:06:18.635Z,6.23
2019-03-02T17:08:48.728Z,5.50
2019-03-02T17:11:18.851Z,5.47
2019-03-02T17:13:48.941Z,5.50
2019-03-02T17:16:21.665Z,5.87
2019-03-02T17:19:00.674Z,6.27
2019-03-02T17:21:33.543Z,6.00
2019-03-02T17:24:09.264Z,5.83
2019-03-02T17:26:45.616Z,6.10
2019-03-02T17:29:22.543Z,6.47
2019-03-02T17:31:52.639Z,5.67
2019-03-02T17:34:41.667Z,6.10
2019-03-02T17:37:13.722Z,5.80
2019-03-02T17:40:01.314Z,5.53
2019-03-02T17:42:34.620Z,5.73
2019-03-02T17:45:13.679Z,5.63
2019-03-02T17:47:46.457Z,5.53
2019-03-02T17:50:32.509Z,5.57
2019-03-02T17:53:05.501Z,5.80
2019-03-02T17:55:38.490Z,6.07
2019-03-02T17:58:08.587Z,7.20
2019-03-02T18:00:38.661Z,5.93
2019-03-02T18:03:08.756Z,6.10
2019-03-02T18:05:50.588Z,6.17
2019-03-02T18:08:26.369Z,6.40
2019-03-02T18:10:56.459Z,6.90
2019-03-02T18:13:35.473Z,6.90
2019-03-02T18:16:15.976Z,7.23
2019-03-02T18:18:44.419Z,7.40
2019-03-02T18:21:12.872Z,7.80
2019-03-02T18:23:41.340Z,9.57
2019-03-02T18:26:11.179Z,7.77
2019-03-02T18:28:39.790Z,7.63
2019-03-02T18:31:08.225Z,7.53
2019-03-02T18:33:44.422Z,8.17
2019-03-02T18:36:13.293Z,8.87
2019-03-02T18:38:44.647Z,8.00
2019-03-02T18:41:16.692Z,8.40
2019-03-02T18:43:44.871Z,8.33
2019-03-02T18:46:16.567Z,8.27
2019-03-02T18:48:44.715Z,8.10
2019-03-02T18:51:26.726Z,8.67
2019-03-02T18:53:56.854Z,8.63
2019-03-02T18:56:25.297Z,8.57
2019-03-02T18:59:00.321Z,8.77
2019-03-02T19:01:23.914Z,8.83
2019-03-02T19:03:52.391Z,9.20
2019-03-02T19:06:23.067Z,9.60
2019-03-02T19:08:52.095Z,8.60
2019-03-02T19:11:21.158Z,9.20
2019-03-02T19:13:49.631Z,9.10
2019-03-02T19:16:18.077Z,10.27
2019-03-02T19:18:46.602Z,9.93
2019-03-02T19:21:15.113Z,10.37
2019-03-02T19:23:43.572Z,10.13
2019-03-02T19:26:12.019Z,10.30
2019-03-02T19:28:40.474Z,10.33
2019-03-02T19:31:08.920Z,9.73
2019-03-02T19:33:37.383Z,10.43
2019-03-02T19:36:05.825Z,10.37
2019-03-02T19:38:34.314Z,9.87
2019-03-02T19:41:02.759Z,10.60
2019-03-02T19:43:31.194Z,10.87
2019-03-02T19:45:59.689Z,11.00
2019-03-02T19:48:28.117Z,11.03
2019-03-02T19:50:56.596Z,11.50
2019-03-02T19:53:25.054Z,10.27
2019-03-02T19:55:53.535Z,11.13
2019-03-02T19:58:21.988Z,11.20
2019-03-02T20:00:50.521Z,11.07
2019-03-02T20:03:18.998Z,11.43
2019-03-02T20:05:47.481Z,11.43
2019-03-02T20:08:15.917Z,11.50
2019-03-02T20:10:44.415Z,12.67
2019-03-02T20:13:12.951Z,12.07
2019-03-02T20:15:41.491Z,12.80
2019-03-02T20:18:09.942Z,11.60
2019-03-02T20:20:38.385Z,12.03
2019-03-02T20:23:06.849Z,12.83
2019-03-02T20:25:35.396Z,12.40
2019-03-02T20:28:03.944Z,12.77
2019-03-02T20:30:32.490Z,12.00
2019-03-02T20:33:00.951Z,12.23
2019-03-02T20:35:31.930Z,12.50
2019-03-02T20:38:00.370Z,12.67
2019-03-02T20:40:29.705Z,12.20
2019-03-02T20:42:58.180Z,12.30
2019-03-02T20:45:26.718Z,12.90
2019-03-02T20:47:55.659Z,12.43
2019-03-02T20:50:24.830Z,12.80
2019-03-02T20:52:53.280Z,12.40
2019-03-02T20:55:21.732Z,13.30
2019-03-02T20:57:50.504Z,12.67
2019-03-02T21:00:32.957Z,13.10
2019-03-02T21:03:01.393Z,13.50
2019-03-02T21:05:30.058Z,13.17
2019-03-02T21:07:58.619Z,13.13
2019-03-02T21:10:31.717Z,13.73
2019-03-02T21:13:00.227Z,13.87
2019-03-02T21:15:37.645Z,14.10
2019-03-02T21:18:06.611Z,14.53
2019-03-02T21:20:36.600Z,13.27
2019-03-02T21:23:05.566Z,13.40
2019-03-02T21:25:34.043Z,13.43
2019-03-02T21:28:02.473Z,13.30
2019-03-02T21:30:30.937Z,13.27
2019-03-02T21:32:59.484Z,13.80
2019-03-02T21:35:27.974Z,13.20
2019-03-02T21:37:56.497Z,13.23
2019-03-02T21:40:32.964Z,12.57
2019-03-02T21:43:01.415Z,13.80
2019-03-02T21:45:31.138Z,13.80
2019-03-02T21:48:00.022Z,14.13
2019-03-02T21:50:31.573Z,12.97
2019-03-02T21:53:00.061Z,14.03
2019-03-02T21:55:28.493Z,14.23
2019-03-02T21:57:56.969Z,14.33
2019-03-02T22:00:28.020Z,13.43
2019-03-02T22:02:56.675Z,13.23
2019-03-02T22:05:25.190Z,13.90
2019-03-02T22:07:53.698Z,14.07
2019-03-02T22:10:33.865Z,13.00
2019-03-02T22:13:02.349Z,13.53
2019-03-02T22:15:30.887Z,14.13
2019-03-02T22:17:59.412Z,14.07
2019-03-02T22:20:27.876Z,14.53
2019-03-02T22:22:56.409Z,14.40
2019-03-02T22:25:25.411Z,13.80
2019-03-02T22:27:53.870Z,14.10
2019-03-02T22:30:24.620Z,14.47
2019-03-02T22:32:53.096Z,14.93
2019-03-02T22:35:22.402Z,14.20
2019-03-02T22:37:50.871Z,13.97
2019-03-02T22:40:27.210Z,13.97
2019-03-02T22:42:55.692Z,14.50
2019-03-02T22:45:24.138Z,15.20
2019-03-02T22:47:52.649Z,15.63
2019-03-02T22:50:23.149Z,16.07
2019-03-02T22:52:51.612Z,16.27
2019-03-02T22:55:20.050Z,15.10
2019-03-02T22:57:48.789Z,14.40
2019-03-02T23:00:29.195Z,15.60
2019-03-02T23:02:56.611Z,15.67
2019-03-02T23:05:25.200Z,15.53
2019-03-02T23:07:53.729Z,14.83
2019-03-02T23:10:22.181Z,15.20
2019-03-02T23:12:50.644Z,16.60
2019-03-02T23:15:26.656Z,15.33
2019-03-02T23:17:55.116Z,16.43
2019-03-02T23:20:23.562Z,15.17
2019-03-02T23:22:52.084Z,16.63
2019-03-02T23:25:20.538Z,16.57
2019-03-02T23:27:48.989Z,15.87
2019-03-02T23:30:19.636Z,15.90
2019-03-02T23:32:48.154Z,15.23
2019-03-02T23:35:16.644Z,17.87
2019-03-02T23:37:45.097Z,16.30
2019-03-02T23:40:15.765Z,16.47
2019-03-02T23:42:44.332Z,16.33
2019-03-02T23:45:14.511Z,16.80
2019-03-02T23:47:42.996Z,17.03
2019-03-02T23:50:12.275Z,15.83
2019-03-02T23:52:40.726Z,16.73
2019-03-02T23:55:13.202Z,17.13
2019-03-02T23:57:41.778Z,16.00
